Main page
METAR-TAF:

METAR-TAF

Airports :

Kullu–Manali Airport

Kullu / Manali, India

latitude: 31-52-36N, longitude: 77-09-16E, elevation: 1089 m

Current weather observation

The report was made 43 minutes ago, at 01:30 UTC
Calm wind
Temperature 5°C
Humidity 93%
Pressure 1020 hPa
Visibility: 0800 m
fog

METAR: VIBR 160130Z 00000KT 0800 FG NSC 05/04 Q1020

Time: 07:43 (02:13 UTC)


TAF: missing

Weather observations and forecasts of more than 4000 airports (METAR and TAF reports).

The available stations are represented by yellow and red dots on the map.

Hover mouse over dot to see the name of the station.

Then click to see weather observations and forecasts.

To change the map : click on the green buttons with a black cross to zoom in, on the green button with a dash to zoom out, or on the green arrows for adjacent maps.


METAR-TAF: